Staphorst, Netherlands
Current Conditions -  °F | °C
As of 1:55 AM on Monday 22 Dec 2014 (Local Time) from EHGG Reporting Station
Overcast Overcast  
Wind Chill: 50°   Ceiling: 1100
Heat Index: 50°   Visibility: 6mi
Dew Point: 46°   Wind: 26mph
Humidity: 87%   Direction: 240°WSW
Pressure: 29.91"   Gusts: NA
Location:  52.65°N, 6.21°E
Report Text: EHGG 220055Z AUTO 24023KT 210V280 9999 OVC011 10/08 Q1013
Loading
Personal Weather Stations






























Interactive Weather Map New forecast layout! Learn more

10-Day Weather Forecast

Advertisements
Track Severe Weather on mobile